Matipo, Brazil
Current Conditions -  °F | °C
As of 1:00 PM on Sunday 21 Dec 2014 (Local Time) from SBCF Reporting Station
Broken Clouds Broken Clouds  
Wind Chill: 75°   Ceiling: 3000
Heat Index: 75°   Visibility: 6mi
Dew Point: 70°   Wind: 2mph
Humidity: 83%   Direction: 330°NNW
Pressure: 30.06"   Gusts: NA
Location:  20.28°S, 42.34°W
Report Text: SBCF 211500Z 33002KT 9999 BKN030 BKN100 24/21 Q1018 RERA
Loading
Personal Weather Stations






























Interactive Weather Map New forecast layout! Learn more

10-Day Weather Forecast

Advertisements
Track Severe Weather on mobile